createdAt,value
2024-01-04T03:32:46.751Z,0.80
2024-01-04T03:35:14.814Z,0.60
2024-01-04T03:37:42.762Z,0.90
2024-01-04T03:40:11.046Z,0.60
2024-01-04T03:42:38.796Z,0.60
2024-01-04T03:45:08.360Z,1.10
2024-01-04T03:47:36.100Z,0.60
2024-01-04T03:50:06.567Z,0.75
2024-01-04T03:52:35.292Z,0.70
2024-01-04T03:55:03.161Z,0.50
2024-01-04T03:57:30.924Z,0.50
2024-01-04T03:59:58.770Z,0.50
2024-01-04T04:02:26.459Z,0.65
2024-01-04T04:04:57.626Z,0.70
2024-01-04T04:07:25.605Z,0.50
2024-01-04T04:09:53.524Z,0.80
2024-01-04T04:12:21.411Z,0.50
2024-01-04T04:14:49.828Z,0.50
2024-01-04T04:17:21.712Z,0.55
2024-01-04T04:19:49.573Z,0.50
2024-01-04T04:22:17.376Z,0.50
2024-01-04T04:24:45.256Z,0.40
2024-01-04T04:27:13.375Z,0.45
2024-01-04T04:29:41.871Z,0.40
2024-01-04T04:32:09.960Z,0.50
2024-01-04T04:34:37.663Z,0.45
2024-01-04T04:37:05.894Z,0.50
2024-01-04T04:39:33.808Z,0.70
2024-01-04T04:42:02.102Z,0.60
2024-01-04T04:44:29.953Z,0.50
2024-01-04T04:46:58.536Z,0.40
2024-01-04T04:49:27.481Z,0.70
2024-01-04T04:51:55.768Z,0.68
2024-01-04T04:54:23.608Z,0.82
2024-01-04T04:56:51.417Z,0.60
2024-01-04T04:59:19.075Z,0.70
2024-01-04T05:01:47.580Z,1.30
2024-01-04T05:04:15.691Z,1.35
2024-01-04T05:06:43.912Z,1.27
2024-01-04T05:09:11.782Z,1.17
2024-01-04T05:11:39.567Z,1.10
2024-01-04T05:14:07.509Z,1.05
2024-01-04T05:16:35.272Z,1.00
2024-01-04T05:19:03.518Z,1.27
2024-01-04T05:21:36.844Z,0.93
2024-01-04T05:24:05.328Z,1.25
2024-01-04T05:26:34.273Z,1.00
2024-01-04T05:29:02.156Z,0.85
2024-01-04T05:31:29.915Z,0.93
2024-01-04T05:33:57.832Z,1.15
2024-01-04T05:36:26.021Z,0.93
2024-01-04T05:38:53.782Z,1.00
2024-01-04T05:41:21.530Z,1.20
2024-01-04T05:43:49.281Z,0.85
2024-01-04T05:46:18.005Z,1.00
2024-01-04T05:48:46.205Z,0.90
2024-01-04T05:51:15.395Z,1.00
2024-01-04T05:53:43.443Z,0.90
2024-01-04T05:56:11.142Z,0.82
2024-01-04T05:58:38.862Z,1.00
2024-01-04T06:01:06.541Z,1.00
2024-01-04T06:03:34.479Z,0.75
2024-01-04T06:06:02.318Z,1.00
2024-01-04T06:08:30.053Z,0.88
2024-01-04T06:10:57.701Z,1.38
2024-01-04T06:13:28.095Z,3.05
2024-01-04T06:15:56.212Z,4.07
2024-01-04T06:18:24.105Z,4.68
2024-01-04T06:20:51.973Z,4.68
2024-01-04T06:23:19.887Z,4.25
2024-01-04T06:25:47.565Z,3.88
2024-01-04T06:28:15.473Z,3.83
2024-01-04T06:30:43.313Z,4.18
2024-01-04T06:33:11.327Z,3.55
2024-01-04T06:35:39.145Z,3.72
2024-01-04T06:38:09.455Z,3.20
2024-01-04T06:40:37.937Z,3.83
2024-01-04T06:43:09.618Z,3.30
2024-01-04T06:45:38.155Z,2.97
2024-01-04T06:48:06.866Z,3.10
2024-01-04T06:50:34.716Z,3.30
2024-01-04T06:53:02.552Z,2.78
2024-01-04T06:55:30.516Z,2.90
2024-01-04T06:57:58.396Z,2.67
2024-01-04T07:00:26.726Z,2.70
2024-01-04T07:02:55.218Z,2.58
2024-01-04T07:05:24.023Z,2.33
2024-01-04T07:07:52.719Z,2.40
2024-01-04T07:10:21.166Z,2.25
2024-01-04T07:12:49.762Z,2.13
2024-01-04T07:15:17.681Z,2.10
2024-01-04T07:17:45.650Z,1.95
2024-01-04T07:20:13.609Z,2.00
2024-01-04T07:22:41.824Z,2.10
2024-01-04T07:25:11.194Z,2.40
2024-01-04T07:27:39.130Z,1.77
2024-01-04T07:30:07.521Z,2.30
2024-01-04T07:32:35.473Z,1.52
2024-01-04T07:35:12.173Z,1.90
2024-01-04T07:37:44.801Z,1.80
2024-01-04T07:40:13.424Z,1.40
2024-01-04T07:42:46.448Z,1.80
2024-01-04T07:45:16.642Z,1.60
2024-01-04T07:47:50.985Z,1.67
2024-01-04T07:50:19.658Z,1.80
2024-01-04T07:52:47.474Z,1.33
2024-01-04T07:55:15.565Z,1.70
2024-01-04T07:57:43.958Z,1.52
2024-01-04T08:00:12.245Z,1.48
2024-01-04T08:02:43.533Z,1.60
2024-01-04T08:05:12.414Z,1.40
2024-01-04T08:07:40.976Z,1.50
2024-01-04T08:10:10.595Z,1.85
2024-01-04T08:12:41.678Z,1.58
2024-01-04T08:15:10.395Z,1.60
2024-01-04T08:17:38.521Z,1.33
2024-01-04T08:20:06.935Z,1.42
2024-01-04T08:22:34.902Z,1.27
2024-01-04T08:25:03.917Z,1.40
2024-01-04T08:27:31.620Z,1.20
2024-01-04T08:29:59.415Z,1.40
2024-01-04T08:32:27.348Z,1.30
2024-01-04T08:34:55.187Z,1.40
2024-01-04T08:37:23.024Z,1.08
2024-01-04T08:39:51.846Z,1.10
2024-01-04T08:42:21.018Z,1.10
2024-01-04T08:44:49.154Z,1.10
2024-01-04T08:47:17.085Z,1.10
2024-01-04T08:49:45.131Z,1.52
2024-01-04T08:52:13.334Z,1.00
2024-01-04T08:54:42.754Z,1.02
2024-01-04T08:57:10.590Z,1.30
2024-01-04T08:59:38.496Z,1.27
2024-01-04T09:02:08.022Z,1.10
2024-01-04T09:04:36.806Z,1.35
2024-01-04T09:07:04.808Z,1.40
2024-01-04T09:09:32.729Z,1.08
2024-01-04T09:12:00.606Z,1.00
2024-01-04T09:14:28.602Z,1.02
2024-01-04T09:16:56.587Z,1.10
2024-01-04T09:19:27.248Z,1.00
2024-01-04T09:21:56.853Z,1.02
2024-01-04T09:24:25.326Z,1.10
2024-01-04T09:26:53.292Z,1.10
2024-01-04T09:29:21.113Z,1.27
2024-01-04T09:31:48.953Z,0.98
2024-01-04T09:34:17.112Z,1.10
2024-01-04T09:36:45.243Z,1.17
2024-01-04T09:39:19.706Z,1.02
2024-01-04T09:41:49.535Z,1.00
2024-01-04T09:44:17.660Z,1.08
2024-01-04T09:46:45.503Z,0.90
2024-01-04T09:49:15.016Z,1.20
2024-01-04T09:51:44.079Z,1.20
2024-01-04T09:54:12.936Z,1.08
2024-01-04T09:56:47.944Z,1.27
2024-01-04T09:59:15.891Z,0.95
2024-01-04T10:01:44.642Z,1.00
2024-01-04T10:04:14.346Z,1.00
2024-01-04T10:06:46.327Z,0.90
2024-01-04T10:09:26.026Z,0.98
2024-01-04T10:11:59.993Z,0.82
2024-01-04T10:14:33.665Z,1.05
2024-01-04T10:17:03.604Z,0.85
2024-01-04T10:19:32.843Z,1.08
2024-01-04T10:22:05.253Z,1.00
2024-01-04T10:24:39.951Z,0.90
2024-01-04T10:27:10.278Z,0.90
2024-01-04T10:29:40.008Z,0.90
2024-01-04T10:32:10.289Z,1.10
2024-01-04T10:34:39.944Z,0.93
2024-01-04T10:37:23.803Z,0.93
2024-01-04T10:39:59.598Z,1.13
2024-01-04T10:42:28.428Z,1.10
2024-01-04T10:44:57.173Z,0.98
2024-01-04T10:47:26.048Z,0.90
2024-01-04T10:50:00.982Z,0.80
2024-01-04T10:52:33.272Z,1.02
2024-01-04T10:55:02.003Z,1.05
2024-01-04T10:57:32.905Z,0.85
2024-01-04T11:00:03.610Z,1.00
2024-01-04T11:02:33.433Z,1.10
2024-01-04T11:05:01.431Z,1.00
2024-01-04T11:07:29.765Z,1.40
2024-01-04T11:09:58.320Z,0.80
2024-01-04T11:12:28.684Z,0.93
2024-01-04T11:14:56.553Z,1.02
2024-01-04T11:17:42.075Z,0.93
2024-01-04T11:20:43.872Z,1.20
2024-01-04T11:23:33.589Z,0.90
2024-01-04T11:26:20.529Z,0.85
2024-01-04T11:28:48.725Z,0.95
2024-01-04T11:31:17.130Z,1.08
2024-01-04T11:33:50.037Z,1.00
2024-01-04T11:36:21.897Z,0.70
2024-01-04T11:38:50.844Z,1.13
2024-01-04T11:41:19.546Z,0.70
2024-01-04T11:43:49.426Z,0.77
2024-01-04T11:46:23.846Z,0.80
2024-01-04T11:49:06.151Z,0.73
2024-01-04T11:51:40.754Z,0.82
2024-01-04T11:54:11.696Z,0.85
2024-01-04T11:56:39.851Z,0.80
2024-01-04T11:59:08.456Z,0.77
2024-01-04T12:01:46.336Z,0.70
2024-01-04T12:04:18.287Z,0.70
2024-01-04T12:09:18.783Z,0.70
2024-01-04T12:14:27.170Z,0.70
2024-01-04T12:16:55.437Z,0.70
2024-01-04T12:19:23.480Z,0.90
2024-01-04T12:21:51.568Z,0.80
2024-01-04T12:24:19.626Z,0.88
2024-01-04T12:26:47.685Z,0.60
2024-01-04T12:29:16.048Z,0.50
2024-01-04T12:31:44.810Z,0.60
2024-01-04T12:34:13.222Z,0.80
2024-01-04T12:36:41.139Z,0.50
2024-01-04T12:39:12.105Z,0.70
2024-01-04T12:41:41.032Z,0.50
2024-01-04T12:44:09.304Z,0.70
2024-01-04T12:46:37.897Z,0.65
2024-01-04T12:49:07.787Z,0.68
2024-01-04T12:51:42.713Z,0.80
2024-01-04T12:54:12.236Z,0.75
2024-01-04T12:56:40.293Z,0.68
2024-01-04T12:59:08.274Z,0.85
2024-01-04T13:01:36.261Z,0.70
2024-01-04T13:04:05.341Z,0.60
2024-01-04T13:06:34.184Z,0.63
2024-01-04T13:09:02.384Z,1.13
2024-01-04T13:11:30.215Z,1.10
2024-01-04T13:13:58.007Z,0.98
2024-01-04T13:16:25.707Z,0.90
2024-01-04T13:18:53.691Z,0.90
2024-01-04T13:21:21.991Z,0.95
2024-01-04T13:23:50.185Z,1.08
2024-01-04T13:26:20.127Z,0.90
2024-01-04T13:28:48.114Z,0.82
2024-01-04T13:31:16.480Z,0.80
2024-01-04T13:33:44.798Z,1.00
2024-01-04T13:36:12.869Z,0.77
2024-01-04T13:38:40.750Z,0.65
2024-01-04T13:41:08.724Z,0.90
2024-01-04T13:43:36.531Z,0.80
2024-01-04T13:46:04.623Z,1.00
2024-01-04T13:48:32.849Z,0.90
2024-01-04T13:51:00.739Z,0.90
2024-01-04T13:53:28.601Z,0.80
2024-01-04T13:55:56.368Z,0.80
2024-01-04T13:58:24.188Z,0.60
2024-01-04T14:00:52.096Z,0.52
2024-01-04T14:03:20.325Z,0.80
2024-01-04T14:05:53.646Z,0.75
2024-01-04T15:43:30.366Z,1.23
2024-01-04T15:45:58.493Z,1.25
2024-01-04T15:48:26.987Z,1.30
2024-01-04T15:50:55.184Z,0.98
2024-01-04T15:53:23.538Z,1.20
2024-01-04T15:55:51.681Z,1.17
2024-01-04T15:58:19.545Z,1.30
2024-01-04T16:00:47.543Z,1.10
2024-01-04T16:03:16.734Z,1.15
2024-01-04T16:05:45.176Z,1.20
2024-01-04T16:08:12.978Z,0.98
2024-01-04T16:10:40.888Z,1.05
2024-01-04T16:13:09.839Z,0.85
2024-01-04T16:15:37.571Z,1.10
2024-01-04T16:18:05.834Z,0.95
2024-01-04T16:20:37.084Z,1.13
2024-01-04T16:23:06.867Z,1.20
2024-01-04T16:25:34.851Z,1.17
2024-01-04T16:28:04.851Z,1.80
2024-01-04T16:30:34.349Z,1.30
2024-01-04T16:33:02.486Z,1.13
2024-01-04T16:35:30.240Z,1.33
2024-01-04T16:37:58.579Z,1.23
2024-01-04T16:40:26.444Z,1.20
2024-01-04T16:42:54.209Z,1.30
2024-01-04T16:45:22.385Z,1.58
2024-01-04T16:47:50.550Z,1.15
2024-01-04T16:50:18.923Z,1.20
2024-01-04T16:52:46.884Z,1.50
2024-01-04T16:55:14.701Z,1.10
2024-01-04T16:57:43.781Z,1.30
2024-01-04T17:00:12.191Z,1.20
2024-01-04T17:03:00.423Z,1.48
2024-01-04T17:05:40.514Z,1.40
2024-01-04T17:08:09.529Z,1.17
2024-01-04T17:10:41.721Z,1.52
2024-01-04T17:13:10.468Z,1.52
2024-01-04T17:15:44.151Z,1.27
2024-01-04T17:18:12.187Z,1.02
2024-01-04T17:20:39.931Z,1.30
2024-01-04T17:23:07.675Z,1.40
2024-01-04T17:25:35.757Z,1.85
2024-01-04T17:28:06.016Z,1.15
2024-01-04T17:30:34.155Z,1.27
2024-01-04T17:33:02.270Z,1.23
2024-01-04T17:35:32.162Z,1.60
2024-01-04T17:38:01.658Z,1.10
2024-01-04T17:40:29.581Z,1.35
2024-01-04T17:42:57.393Z,1.20
2024-01-04T17:45:26.747Z,1.30
2024-01-04T17:47:57.685Z,1.30
2024-01-04T17:50:26.575Z,1.20
2024-01-04T17:52:54.270Z,1.30
2024-01-04T17:55:22.343Z,1.05
2024-01-04T17:57:50.145Z,1.25
2024-01-04T18:00:18.712Z,1.25
2024-01-04T18:03:06.470Z,1.23
2024-01-04T18:05:38.362Z,1.50
2024-01-04T18:08:06.511Z,1.40
2024-01-04T18:10:34.815Z,1.50
2024-01-04T18:13:03.366Z,1.65
2024-01-04T18:15:31.135Z,1.40
2024-01-04T18:17:59.474Z,1.33
2024-01-04T18:20:27.461Z,1.27
2024-01-04T18:22:55.940Z,1.10
2024-01-04T18:25:24.955Z,1.05
2024-01-04T18:27:52.796Z,1.08
2024-01-04T18:30:21.197Z,1.20
